TimeCST,TemperatureF,Dew PointF,Humidity,Sea Level PressureIn,VisibilityMPH,Wind Direction,Wind SpeedMPH,Gust SpeedMPH,PrecipitationIn,Events,Conditions,WindDirDegrees,DateUTC
12:52 AM,25.0,12.9,60,30.07,10.0,SSE,13.8,-,N/A,,Clear,160,2013-01-27 06:52:00
1:52 AM,28.0,14.0,56,30.06,10.0,SSE,17.3,-,N/A,,Mostly Cloudy,160,2013-01-27 07:52:00
2:52 AM,25.0,15.1,66,30.05,10.0,SSE,12.7,-,N/A,,Mostly Cloudy,150,2013-01-27 08:52:00
3:52 AM,25.0,15.1,66,30.03,10.0,SSE,12.7,-,N/A,,Scattered Clouds,150,2013-01-27 09:52:00
4:52 AM,28.0,16.0,61,30.00,10.0,SSE,15.0,-,N/A,,Overcast,150,2013-01-27 10:52:00
5:52 AM,28.9,16.0,58,29.99,10.0,SSE,16.1,-,N/A,,Overcast,150,2013-01-27 11:52:00
6:30 AM,28.4,17.6,64,29.92,10.0,SSE,17.3,-,N/A,,Overcast,160,2013-01-27 12:30:00
6:52 AM,28.9,17.1,61,29.97,10.0,SSE,15.0,-,N/A,,Overcast,150,2013-01-27 12:52:00
7:47 AM,28.4,23.0,80,29.89,9.0,SSE,15.0,-,0.00,,Overcast,150,2013-01-27 13:47:00
7:52 AM,28.9,24.1,82,29.94,8.0,SSE,16.1,-,0.00,Rain,Light Freezing Rain,150,2013-01-27 13:52:00
8:08 AM,30.2,26.6,86,29.90,7.0,SSE,15.0,-,0.00,Rain,Light Freezing Rain,160,2013-01-27 14:08:00
8:52 AM,30.9,28.0,89,29.92,3.0,SE,19.6,-,0.00,Rain,Light Freezing Rain,140,2013-01-27 14:52:00
9:36 AM,30.2,28.4,93,29.89,2.5,SSE,18.4,-,0.00,Rain,Light Freezing Rain,160,2013-01-27 15:36:00
9:52 AM,30.9,28.9,92,29.93,2.0,SSE,17.3,-,0.00,Rain,Light Freezing Rain,160,2013-01-27 15:52:00
10:06 AM,32.0,30.2,93,29.87,2.5,SSE,15.0,-,0.00,,Overcast,150,2013-01-27 16:06:00
10:17 AM,32.0,30.2,93,29.87,2.5,SSE,13.8,-,0.00,Rain,Light Freezing Rain,150,2013-01-27 16:17:00
10:34 AM,32.0,30.2,93,29.87,1.8,SSE,13.8,-,0.00,Rain,Light Freezing Rain,150,2013-01-27 16:34:00
10:40 AM,32.0,30.2,93,29.88,2.0,SSE,16.1,-,N/A,Rain,Light Freezing Rain,160,2013-01-27 16:40:00
10:52 AM,32.0,30.0,92,29.93,3.0,SSE,15.0,-,N/A,Rain,Light Freezing Rain,160,2013-01-27 16:52:00
11:16 AM,32.0,30.2,93,29.87,3.0,SSE,15.0,-,N/A,,Overcast,160,2013-01-27 17:16:00
11:52 AM,32.0,30.0,92,29.89,2.0,SSE,19.6,-,N/A,,Overcast,150,2013-01-27 17:52:00
12:01 PM,32.0,30.2,93,29.84,1.5,SSE,16.1,-,N/A,,Overcast,150,2013-01-27 18:01:00
12:13 PM,32.0,30.2,93,29.83,1.0,SSE,16.1,-,N/A,,Overcast,150,2013-01-27 18:13:00
12:52 PM,32.0,30.0,92,29.86,1.0,SSE,15.0,-,N/A,Rain,Light Freezing Rain,150,2013-01-27 18:52:00
1:09 PM,32.0,30.2,93,29.80,1.2,SSE,13.8,-,N/A,Rain,Light Freezing Rain,150,2013-01-27 19:09:00
1:30 PM,32.0,30.2,93,29.79,1.5,SSE,12.7,-,N/A,Rain,Light Freezing Rain,150,2013-01-27 19:30:00
1:52 PM,32.0,30.0,92,29.82,1.5,SSE,16.1,-,N/A,Rain,Light Freezing Rain,150,2013-01-27 19:52:00
2:06 PM,32.0,30.2,93,29.76,2.0,SSE,17.3,-,N/A,,Overcast,150,2013-01-27 20:06:00
2:52 PM,32.0,30.0,92,29.81,2.5,SSE,12.7,-,N/A,,Overcast,150,2013-01-27 20:52:00
3:11 PM,32.0,30.2,93,29.76,1.8,SE,12.7,-,N/A,,Overcast,140,2013-01-27 21:11:00
3:40 PM,32.0,30.2,93,29.75,2.0,SSE,15.0,-,N/A,,Overcast,150,2013-01-27 21:40:00
3:52 PM,32.0,30.9,96,29.79,2.0,SE,12.7,-,N/A,,Overcast,140,2013-01-27 21:52:00
4:23 PM,32.0,30.2,93,29.74,3.0,SSE,12.7,-,N/A,,Overcast,150,2013-01-27 22:23:00
4:52 PM,32.0,30.0,92,29.79,3.0,SSE,10.4,-,N/A,,Overcast,150,2013-01-27 22:52:00
5:00 PM,32.0,30.2,93,29.75,3.0,SSE,12.7,-,N/A,,Overcast,150,2013-01-27 23:00:00
5:52 PM,30.9,30.0,96,29.79,6.0,SSE,6.9,-,N/A,,Overcast,150,2013-01-27 23:52:00
6:52 PM,30.9,30.0,96,29.81,3.0,SSE,3.5,-,N/A,,Overcast,150,2013-01-28 00:52:00
7:19 PM,30.2,30.2,100,29.76,2.5,SE,5.8,-,N/A,,Overcast,140,2013-01-28 01:19:00
7:52 PM,30.9,30.0,96,29.80,2.0,SSE,4.6,-,N/A,,Overcast,150,2013-01-28 01:52:00
8:10 PM,30.2,30.2,100,29.76,1.5,South,4.6,-,N/A,,Overcast,170,2013-01-28 02:10:00
8:52 PM,30.9,30.0,96,29.80,1.0,Calm,Calm,-,N/A,,Mist,0,2013-01-28 02:52:00
9:07 PM,30.2,30.2,100,29.75,0.8,Calm,Calm,-,N/A,,Mist,0,2013-01-28 03:07:00
9:52 PM,30.9,30.0,96,29.80,0.5,Calm,Calm,-,N/A,Fog,Light Freezing Fog,0,2013-01-28 03:52:00
10:52 PM,30.0,28.9,96,29.81,0.2,WSW,3.5,-,N/A,Fog,Light Freezing Fog,240,2013-01-28 04:52:00
11:52 PM,30.0,28.9,96,29.80,0.2,Calm,Calm,-,N/A,Fog,Light Freezing Fog,0,2013-01-28 05:52:00